Time;durP1;ratioP1;P1;durP2;ratioP2;P2;SDS_P1;SDS_P2;PMS_P1;PMS_P2;Temp;Humidity;BMP_temperature;BMP_pressure;BME280_temperature;BME280_humidity;BME280_pressure;Samples;Min_cycle;Max_cycle;Signal;HPM_P1;HPM_P2
2021/09/10 00:00:50;;;;;;;35.90;19.77;;;;;;;;;;5081958;28;20369;-87
2021/09/10 00:03:16;;;;;;;38.17;19.95;;;;;;;;;;5079282;28;20032;-86
2021/09/10 00:05:41;;;;;;;40.33;20.60;;;;;;;;;;5080857;28;20499;-87
2021/09/10 00:08:06;;;;;;;33.20;18.40;;;;;;;;;;5088277;28;20024;-87
2021/09/10 00:10:32;;;;;;;42.83;19.67;;;;;;;;;;5095145;28;20012;-87
2021/09/10 00:12:59;;;;;;;39.72;20.33;;;;;;;;;;5086443;28;20047;-86
2021/09/10 00:15:28;;;;;;;36.55;20.05;;;;;;;;;;5080891;28;20106;-88
2021/09/10 00:17:54;;;;;;;35.50;19.17;;;;;;;;;;5079928;28;20017;-87
2021/09/10 00:20:19;;;;;;;35.70;19.55;;;;;;;;;;5080651;28;20050;-87
2021/09/10 00:22:44;;;;;;;33.47;19.33;;;;;;;;;;5079072;28;20028;-88
2021/09/10 00:25:10;;;;;;;48.10;20.65;;;;;;;;;;5080545;28;20051;-86
2021/09/10 00:27:36;;;;;;;37.42;18.60;;;;;;;;;;5080090;28;20078;-88
2021/09/10 00:30:03;;;;;;;34.17;19.00;;;;;;;;;;5080775;28;20107;-87
2021/09/10 00:32:28;;;;;;;33.60;19.38;;;;;;;;;;5080738;28;20492;-87
2021/09/10 00:34:54;;;;;;;39.47;19.80;;;;;;;;;;5079506;28;20029;-87
2021/09/10 00:37:19;;;;;;;34.35;19.23;;;;;;;;;;5079755;28;20043;-86
2021/09/10 00:39:44;;;;;;;39.10;20.60;;;;;;;;;;5079623;28;20030;-87
2021/09/10 00:42:10;;;;;;;36.85;20.70;;;;;;;;;;5081775;28;20131;-86
2021/09/10 00:44:35;;;;;;;38.63;20.58;;;;;;;;;;5081791;28;20028;-87
2021/09/10 00:47:01;;;;;;;40.50;21.50;;;;;;;;;;5081053;28;20024;-87
2021/09/10 00:49:26;;;;;;;40.45;21.23;;;;;;;;;;5079288;28;20052;-87
2021/09/10 00:51:52;;;;;;;44.72;22.73;;;;;;;;;;5080490;28;20079;-88
2021/09/10 00:54:17;;;;;;;42.95;22.00;;;;;;;;;;5096357;28;20116;-86
2021/09/10 00:56:43;;;;;;;46.03;23.05;;;;;;;;;;5078234;28;20021;-87
2021/09/10 00:59:08;;;;;;;39.45;22.95;;;;;;;;;;5079273;28;20065;-87
2021/09/10 01:01:33;;;;;;;42.67;22.42;;;;;;;;;;5080774;28;20048;-87
2021/09/10 01:04:01;;;;;;;46.25;23.33;;;;;;;;;;5078556;28;20037;-88
2021/09/10 01:06:27;;;;;;;41.63;21.73;;;;;;;;;;5082296;28;20028;-87
2021/09/10 01:08:52;;;;;;;39.97;20.80;;;;;;;;;;5083319;28;20032;-87
2021/09/10 01:11:18;;;;;;;42.35;22.60;;;;;;;;;;5083428;28;20051;-86
2021/09/10 01:13:45;;;;;;;43.58;22.92;;;;;;;;;;5082206;28;20028;-86
2021/09/10 01:16:11;;;;;;;44.40;21.95;;;;;;;;;;5076612;28;20029;-87
2021/09/10 01:18:36;;;;;;;41.83;23.55;;;;;;;;;;5079152;28;20403;-85
2021/09/10 01:21:01;;;;;;;46.05;23.67;;;;;;;;;;5099115;28;20098;-86
2021/09/10 01:23:27;;;;;;;43.13;23.35;;;;;;;;;;5087967;28;20031;-87
2021/09/10 01:25:52;;;;;;;46.35;24.33;;;;;;;;;;5084217;28;20048;-87
2021/09/10 01:28:17;;;;;;;45.20;22.33;;;;;;;;;;5084256;28;20032;-87
2021/09/10 01:30:43;;;;;;;43.85;23.67;;;;;;;;;;5084792;28;20059;-88
2021/09/10 01:33:09;;;;;;;45.20;24.42;;;;;;;;;;5083191;28;20025;-87
2021/09/10 01:35:37;;;;;;;51.80;25.00;;;;;;;;;;5082000;28;20031;-87
2021/09/10 01:38:03;;;;;;;55.17;25.52;;;;;;;;;;5085819;28;20103;-86
2021/09/10 01:40:30;;;;;;;50.42;24.40;;;;;;;;;;5101382;28;20043;-86
2021/09/10 01:42:55;;;;;;;48.60;26.27;;;;;;;;;;5095288;28;20035;-84
2021/09/10 01:45:21;;;;;;;48.78;26.58;;;;;;;;;;5097797;28;20484;-87
2021/09/10 01:47:47;;;;;;;53.90;26.80;;;;;;;;;;5083538;28;20027;-86
2021/09/10 01:50:17;;;;;;;51.33;26.63;;;;;;;;;;5083230;28;20025;-87
2021/09/10 01:52:43;;;;;;;52.10;26.45;;;;;;;;;;5083506;28;20021;-87
2021/09/10 01:55:12;;;;;;;54.05;25.90;;;;;;;;;;5088503;28;20566;-86
2021/09/10 01:57:38;;;;;;;49.65;26.25;;;;;;;;;;5081890;28;20476;-87
2021/09/10 02:00:04;;;;;;;56.17;27.63;;;;;;;;;;5082132;28;20104;-87
2021/09/10 02:02:30;;;;;;;47.92;26.58;;;;;;;;;;5082427;28;20024;-88
2021/09/10 02:04:55;;;;;;;56.33;29.73;;;;;;;;;;5080601;28;20025;-87
2021/09/10 02:07:20;;;;;;;56.38;28.48;;;;;;;;;;5081223;28;20020;-88
2021/09/10 02:09:46;;;;;;;57.65;29.10;;;;;;;;;;5081306;28;20025;-87
2021/09/10 02:12:11;;;;;;;55.22;29.63;;;;;;;;;;5082645;28;20039;-87
2021/09/10 02:14:37;;;;;;;57.25;28.60;;;;;;;;;;5082994;28;20093;-88
2021/09/10 02:17:03;;;;;;;58.00;28.52;;;;;;;;;;5082173;28;20020;-86
2021/09/10 02:19:29;;;;;;;63.55;30.02;;;;;;;;;;5082783;28;20021;-89
2021/09/10 02:21:55;;;;;;;53.88;27.90;;;;;;;;;;5084156;28;20027;-87
2021/09/10 02:24:20;;;;;;;63.80;29.73;;;;;;;;;;5082693;28;20086;-87
2021/09/10 02:26:46;;;;;;;57.55;28.20;;;;;;;;;;5084449;28;20029;-88
2021/09/10 02:29:12;;;;;;;54.22;27.55;;;;;;;;;;5081769;28;20020;-87
2021/09/10 02:31:37;;;;;;;52.15;29.35;;;;;;;;;;5082374;28;20472;-87
2021/09/10 02:34:03;;;;;;;57.15;28.92;;;;;;;;;;5084419;28;20107;-86
2021/09/10 02:36:28;;;;;;;56.20;29.42;;;;;;;;;;5095940;28;20144;-86
2021/09/10 02:38:54;;;;;;;61.67;30.15;;;;;;;;;;5092823;28;20483;-87
2021/09/10 02:41:19;;;;;;;63.85;31.85;;;;;;;;;;5082025;28;20086;-86
2021/09/10 02:43:45;;;;;;;61.55;30.42;;;;;;;;;;5079492;28;20449;-87
2021/09/10 02:46:11;;;;;;;65.60;30.23;;;;;;;;;;5084359;28;20408;-87
2021/09/10 02:48:36;;;;;;;58.17;30.20;;;;;;;;;;5081354;28;20109;-87
2021/09/10 02:51:02;;;;;;;63.80;29.77;;;;;;;;;;5088882;28;20024;-84
2021/09/10 02:53:27;;;;;;;56.70;29.13;;;;;;;;;;5082529;28;20084;-86
2021/09/10 02:55:53;;;;;;;64.28;30.15;;;;;;;;;;5080451;28;20467;-87
2021/09/10 02:58:18;;;;;;;57.47;31.10;;;;;;;;;;5080669;28;20031;-87
2021/09/10 03:00:43;;;;;;;59.53;31.60;;;;;;;;;;5079894;28;20032;-86
2021/09/10 03:03:09;;;;;;;61.22;31.70;;;;;;;;;;5080259;28;20024;-86
2021/09/10 03:05:35;;;;;;;60.40;30.33;;;;;;;;;;5078565;28;20487;-87
2021/09/10 03:08:00;;;;;;;63.38;30.60;;;;;;;;;;5080152;28;20036;-87
2021/09/10 03:10:26;;;;;;;59.80;29.38;;;;;;;;;;5080734;28;20066;-87
2021/09/10 03:12:52;;;;;;;62.08;30.23;;;;;;;;;;5081640;28;20099;-88
2021/09/10 03:15:17;;;;;;;76.55;32.83;;;;;;;;;;5079896;28;20036;-86
2021/09/10 03:17:43;;;;;;;54.13;27.52;;;;;;;;;;5080105;28;20391;-86
2021/09/10 03:20:10;;;;;;;57.70;30.45;;;;;;;;;;5081547;28;20024;-87
2021/09/10 03:22:35;;;;;;;62.78;29.67;;;;;;;;;;5080625;28;20036;-87
2021/09/10 03:25:01;;;;;;;56.42;27.55;;;;;;;;;;5080334;28;20021;-87
2021/09/10 03:27:27;;;;;;;65.30;30.27;;;;;;;;;;5078170;28;20033;-86
2021/09/10 03:29:53;;;;;;;67.47;30.65;;;;;;;;;;5079844;28;20020;-87
2021/09/10 03:32:18;;;;;;;60.63;29.63;;;;;;;;;;5079229;28;20078;-86
2021/09/10 03:34:43;;;;;;;53.20;29.35;;;;;;;;;;5079772;28;20052;-87
2021/09/10 03:37:11;;;;;;;61.45;28.38;;;;;;;;;;5080470;28;20017;-87
2021/09/10 03:39:36;;;;;;;53.85;28.23;;;;;;;;;;5079668;28;20035;-87
2021/09/10 03:42:02;;;;;;;58.35;28.90;;;;;;;;;;5080204;28;20476;-88
2021/09/10 03:44:27;;;;;;;61.50;29.60;;;;;;;;;;5082470;28;20036;-86
2021/09/10 03:46:53;;;;;;;71.40;29.08;;;;;;;;;;5080715;28;20021;-88
2021/09/10 03:49:19;;;;;;;60.80;29.27;;;;;;;;;;5079639;28;20407;-86
2021/09/10 03:51:44;;;;;;;67.00;28.63;;;;;;;;;;5079022;28;20024;-87
2021/09/10 03:54:10;;;;;;;62.80;29.58;;;;;;;;;;5078683;28;20054;-88
2021/09/10 03:56:35;;;;;;;56.85;27.38;;;;;;;;;;5079144;28;20029;-88
2021/09/10 03:59:01;;;;;;;49.92;26.15;;;;;;;;;;5079352;28;20037;-87
2021/09/10 04:01:26;;;;;;;55.70;27.08;;;;;;;;;;5078341;28;20047;-86
2021/09/10 04:03:51;;;;;;;57.35;29.63;;;;;;;;;;5079890;28;20034;-87
2021/09/10 04:06:17;;;;;;;48.75;26.58;;;;;;;;;;5085699;28;20044;-87
2021/09/10 04:08:42;;;;;;;54.13;27.13;;;;;;;;;;5081637;28;20033;-86
2021/09/10 04:11:07;;;;;;;56.05;29.67;;;;;;;;;;5080624;28;20341;-87
2021/09/10 04:13:33;;;;;;;53.58;26.50;;;;;;;;;;5078986;28;20028;-88
2021/09/10 04:15:58;;;;;;;51.20;25.92;;;;;;;;;;5080926;28;20036;-88
2021/09/10 04:18:24;;;;;;;53.65;26.02;;;;;;;;;;5086783;28;20064;-87
2021/09/10 04:20:49;;;;;;;51.00;25.70;;;;;;;;;;5081184;28;20028;-86
2021/09/10 04:23:14;;;;;;;53.45;25.23;;;;;;;;;;5079627;28;20060;-87
2021/09/10 04:25:40;;;;;;;50.35;25.17;;;;;;;;;;5085378;28;20071;-87
2021/09/10 04:28:07;;;;;;;52.92;26.13;;;;;;;;;;5080634;28;20029;-87
2021/09/10 04:30:32;;;;;;;50.33;25.17;;;;;;;;;;5081219;28;20028;-86
2021/09/10 04:32:58;;;;;;;57.30;25.95;;;;;;;;;;5083198;28;20088;-86
2021/09/10 04:35:23;;;;;;;52.22;24.90;;;;;;;;;;5083023;28;20426;-86
2021/09/10 04:37:48;;;;;;;53.25;26.80;;;;;;;;;;5080932;28;20082;-86
2021/09/10 04:40:14;;;;;;;53.45;24.88;;;;;;;;;;5082190;28;20040;-86
2021/09/10 04:42:39;;;;;;;51.97;25.25;;;;;;;;;;5082181;28;20038;-85
2021/09/10 04:45:06;;;;;;;55.67;25.98;;;;;;;;;;5072114;28;20024;-86
2021/09/10 04:47:31;;;;;;;51.20;25.55;;;;;;;;;;5079199;28;20107;-86
2021/09/10 04:49:57;;;;;;;54.20;26.38;;;;;;;;;;5080243;28;20129;-86
2021/09/10 04:52:22;;;;;;;51.45;26.15;;;;;;;;;;5081228;28;20441;-86
2021/09/10 04:54:47;;;;;;;57.08;27.17;;;;;;;;;;5081390;28;20031;-86
2021/09/10 04:57:13;;;;;;;56.45;26.30;;;;;;;;;;5080907;28;20029;-85
2021/09/10 04:59:38;;;;;;;52.53;25.73;;;;;;;;;;5081276;28;20054;-86
2021/09/10 05:02:03;;;;;;;51.63;25.80;;;;;;;;;;5078744;28;20028;-85
2021/09/10 05:04:29;;;;;;;50.35;24.55;;;;;;;;;;5080381;28;20020;-86
2021/09/10 05:06:54;;;;;;;54.17;25.65;;;;;;;;;;5081382;28;20029;-85
2021/09/10 05:09:20;;;;;;;57.33;26.13;;;;;;;;;;5079208;28;20041;-86
2021/09/10 05:11:46;;;;;;;49.25;24.17;;;;;;;;;;5078843;28;20054;-84
2021/09/10 05:14:13;;;;;;;55.92;26.10;;;;;;;;;;5071769;28;20033;-86
2021/09/10 05:16:38;;;;;;;43.85;23.92;;;;;;;;;;5080582;28;20028;-86
2021/09/10 05:19:04;;;;;;;53.60;25.60;;;;;;;;;;5077909;28;20044;-86
2021/09/10 05:21:29;;;;;;;51.72;24.60;;;;;;;;;;5080948;28;20021;-86
2021/09/10 05:23:55;;;;;;;55.90;25.92;;;;;;;;;;5082144;28;20054;-86
2021/09/10 05:26:20;;;;;;;53.15;24.65;;;;;;;;;;5079860;28;20028;-86
2021/09/10 05:28:46;;;;;;;49.92;24.92;;;;;;;;;;5078020;28;20027;-76
2021/09/10 05:31:11;;;;;;;42.15;23.67;;;;;;;;;;5076977;28;20051;-76
2021/09/10 05:33:37;;;;;;;46.08;24.67;;;;;;;;;;5078609;28;20031;-76
2021/09/10 05:36:03;;;;;;;48.70;25.20;;;;;;;;;;5074521;28;20051;-76
2021/09/10 05:38:28;;;;;;;49.83;25.38;;;;;;;;;;5075567;28;20024;-75
2021/09/10 05:40:54;;;;;;;53.55;25.25;;;;;;;;;;5074786;28;20414;-76
2021/09/10 05:43:19;;;;;;;48.05;25.10;;;;;;;;;;5074363;28;20032;-76
2021/09/10 05:45:44;;;;;;;49.88;24.75;;;;;;;;;;5071594;28;20017;-76
2021/09/10 05:48:10;;;;;;;49.88;25.92;;;;;;;;;;5067054;28;20040;-76
2021/09/10 05:50:35;;;;;;;49.78;25.95;;;;;;;;;;5077877;28;20093;-86
2021/09/10 05:53:06;;;;;;;60.22;27.02;;;;;;;;;;5080497;28;20044;-86
2021/09/10 05:55:33;;;;;;;49.80;25.75;;;;;;;;;;5090124;28;20092;-84
2021/09/10 05:57:58;;;;;;;50.08;25.88;;;;;;;;;;5089825;28;20031;-85
2021/09/10 06:00:23;;;;;;;50.45;26.13;;;;;;;;;;5082274;28;20025;-86
2021/09/10 06:02:49;;;;;;;50.38;25.85;;;;;;;;;;5079646;28;20035;-86
2021/09/10 06:05:14;;;;;;;53.85;25.85;;;;;;;;;;5080910;28;20051;-86
2021/09/10 06:07:40;;;;;;;48.95;26.35;;;;;;;;;;5079150;28;20502;-86
2021/09/10 06:10:06;;;;;;;53.20;24.85;;;;;;;;;;5080974;28;20040;-84
2021/09/10 06:12:31;;;;;;;48.47;24.90;;;;;;;;;;5082344;28;20035;-85
2021/09/10 06:14:56;;;;;;;61.55;26.10;;;;;;;;;;5137638;22;20016;-85
2021/09/10 06:17:22;;;;;;;51.70;26.20;;;;;;;;;;5080478;28;20055;-85
2021/09/10 06:26:34;;;;;;;46.85;24.90;;;;;;;;;;5077919;28;20077;-85
2021/09/10 06:32:24;;;;;;;54.25;25.65;;;;;;;;;;5077536;28;20043;-83
2021/09/10 06:34:49;;;;;;;50.55;25.88;;;;;;;;;;5076757;28;20020;-86
2021/09/10 06:37:15;;;;;;;49.40;23.55;;;;;;;;;;5097135;28;20059;-85
2021/09/10 06:39:40;;;;;;;48.42;23.90;;;;;;;;;;5085254;28;20032;-85
2021/09/10 06:42:06;;;;;;;42.08;23.38;;;;;;;;;;5082849;28;20082;-86
2021/09/10 06:46:56;;;;;;;42.38;24.38;;;;;;;;;;6007268;22;20653;-85
2021/09/10 06:49:22;;;;;;;44.22;23.17;;;;;;;;;;5079447;28;20063;-85
2021/09/10 06:51:47;;;;;;;49.55;25.20;;;;;;;;;;5077788;28;20024;-84
2021/09/10 06:54:13;;;;;;;49.13;24.23;;;;;;;;;;5077988;28;20033;-85
2021/09/10 06:56:44;;;;;;;49.28;23.52;;;;;;;;;;5060415;28;20020;-85
2021/09/10 06:59:09;;;;;;;47.28;24.98;;;;;;;;;;5056737;28;20564;-85
2021/09/10 07:01:35;;;;;;;41.22;23.50;;;;;;;;;;5058662;28;20021;-85
2021/09/10 07:04:01;;;;;;;47.45;23.77;;;;;;;;;;5056367;28;20024;-84
2021/09/10 07:06:28;;;;;;;41.20;20.55;;;;;;;;;;5056571;28;20116;-85
2021/09/10 07:08:54;;;;;;;52.40;22.33;;;;;;;;;;5056544;28;20037;-86
2021/09/10 07:11:19;;;;;;;43.88;21.13;;;;;;;;;;5055949;28;20127;-85
2021/09/10 07:13:46;;;;;;;37.92;20.55;;;;;;;;;;5056962;28;20025;-85
2021/09/10 07:19:34;;;;;;;40.40;18.45;;;;;;;;;;5057536;28;20147;-86
2021/09/10 07:22:00;;;;;;;26.10;15.27;;;;;;;;;;5058363;28;20611;-85
2021/09/10 07:24:25;;;;;;;28.73;15.00;;;;;;;;;;5056329;28;20068;-85
2021/09/10 07:26:52;;;;;;;25.42;14.43;;;;;;;;;;5056342;28;20056;-83
2021/09/10 07:29:45;;;;;;;27.45;14.63;;;;;;;;;;5055942;28;20033;-85
2021/09/10 07:32:10;;;;;;;33.40;14.43;;;;;;;;;;5052383;28;20029;-86
2021/09/10 07:41:20;;;;;;;22.00;12.25;;;;;;;;;;5053272;28;20056;-85
2021/09/10 07:43:47;;;;;;;26.30;14.02;;;;;;;;;;5055624;28;20020;-85
2021/09/10 07:46:13;;;;;;;21.52;12.93;;;;;;;;;;5056987;28;20040;-85
2021/09/10 07:48:39;;;;;;;20.80;12.18;;;;;;;;;;5055618;28;20021;-84
2021/09/10 07:54:30;;;;;;;25.52;12.75;;;;;;;;;;5038473;28;20424;-86
2021/09/10 07:56:56;;;;;;;25.55;12.02;;;;;;;;;;5018396;28;20029;-84
2021/09/10 07:59:22;;;;;;;25.92;12.15;;;;;;;;;;5046546;28;20087;-85
2021/09/10 08:07:32;;;;;;;25.58;12.30;;;;;;;;;;5519459;22;20423;-84
2021/09/10 08:09:58;;;;;;;20.35;13.55;;;;;;;;;;5074390;28;20029;-83
2021/09/10 08:20:12;;;;;;;17.02;11.27;;;;;;;;;;5074055;28;20071;-83
2021/09/10 08:22:38;;;;;;;23.45;11.50;;;;;;;;;;5075076;28;20031;-86
2021/09/10 08:25:06;;;;;;;25.00;11.77;;;;;;;;;;5071290;28;20078;-85
2021/09/10 08:27:31;;;;;;;20.38;11.15;;;;;;;;;;5055071;28;20033;-84
2021/09/10 08:32:55;;;;;;;17.23;9.93;;;;;;;;;;5014667;28;20057;-85
2021/09/10 08:35:21;;;;;;;18.63;11.68;;;;;;;;;;5050617;28;20415;-83
2021/09/10 08:37:46;;;;;;;21.73;10.65;;;;;;;;;;5057159;28;20108;-85
2021/09/10 08:40:17;;;;;;;16.13;9.63;;;;;;;;;;5056485;28;20479;-85
2021/09/10 08:43:23;;;;;;;21.15;10.43;;;;;;;;;;5054895;28;20033;-87
2021/09/10 08:46:51;;;;;;;22.27;11.10;;;;;;;;;;5054681;28;20021;-85
2021/09/10 08:53:02;;;;;;;20.35;10.85;;;;;;;;;;5015422;28;20124;-84
2021/09/10 08:55:36;;;;;;;18.55;10.82;;;;;;;;;;5054218;28;20483;-84
2021/09/10 08:58:01;;;;;;;17.40;9.25;;;;;;;;;;5054816;28;20021;-84
2021/09/10 09:00:30;;;;;;;17.65;9.68;;;;;;;;;;5063215;28;20012;-84
2021/09/10 09:03:05;;;;;;;16.98;10.55;;;;;;;;;;5063981;28;20032;-85
2021/09/10 09:05:31;;;;;;;22.50;9.88;;;;;;;;;;5055677;28;20051;-84
2021/09/10 09:11:18;;;;;;;17.73;9.88;;;;;;;;;;5055633;28;20130;-84
2021/09/10 09:18:00;;;;;;;15.82;11.93;;;;;;;;;;4994551;28;20136;-84
2021/09/10 09:20:26;;;;;;;17.55;9.48;;;;;;;;;;4998983;28;20050;-85
2021/09/10 09:23:27;;;;;;;23.75;11.20;;;;;;;;;;5051565;28;20025;-84
2021/09/10 09:25:52;;;;;;;16.75;10.77;;;;;;;;;;5042540;28;20037;-84
2021/09/10 09:28:19;;;;;;;17.10;10.63;;;;;;;;;;5058629;28;20468;-84
2021/09/10 09:34:52;;;;;;;19.60;10.68;;;;;;;;;;4979817;28;20095;-83
2021/09/10 09:37:24;;;;;;;20.67;10.38;;;;;;;;;;4964759;28;20064;-84
2021/09/10 09:39:55;;;;;;;17.95;10.30;;;;;;;;;;5057737;28;20035;-85
2021/09/10 09:42:32;;;;;;;15.57;10.45;;;;;;;;;;5058854;28;20783;-84
2021/09/10 09:45:11;;;;;;;19.38;11.63;;;;;;;;;;5059707;28;20029;-84
2021/09/10 09:47:38;;;;;;;16.98;12.23;;;;;;;;;;5052382;28;20070;-83
2021/09/10 09:50:07;;;;;;;20.95;10.38;;;;;;;;;;5059115;28;20028;-83
2021/09/10 09:52:32;;;;;;;19.13;12.48;;;;;;;;;;5050652;28;20021;-84
2021/09/10 09:54:58;;;;;;;17.42;11.18;;;;;;;;;;5061699;28;20025;-85
2021/09/10 09:57:26;;;;;;;19.40;11.48;;;;;;;;;;5066776;28;20044;-84
2021/09/10 10:00:04;;;;;;;16.27;9.90;;;;;;;;;;5064399;28;20025;-84
2021/09/10 10:03:26;;;;;;;14.20;10.75;;;;;;;;;;5053359;28;20041;-86
2021/09/10 10:06:33;;;;;;;17.95;10.13;;;;;;;;;;5053054;28;20024;-85
2021/09/10 10:09:06;;;;;;;15.77;11.75;;;;;;;;;;5041628;28;20033;-83
2021/09/10 10:11:52;;;;;;;15.30;9.95;;;;;;;;;;5073976;28;20028;-85
2021/09/10 10:14:33;;;;;;;15.90;9.27;;;;;;;;;;5057031;28;20036;-82
2021/09/10 10:17:02;;;;;;;15.25;8.85;;;;;;;;;;5053235;28;20029;-83
2021/09/10 10:19:33;;;;;;;13.60;9.25;;;;;;;;;;5058072;28;20371;-84
2021/09/10 10:21:58;;;;;;;16.17;10.25;;;;;;;;;;5058433;28;20506;-84
2021/09/10 10:24:36;;;;;;;16.55;9.77;;;;;;;;;;5058680;28;20033;-82
2021/09/10 10:27:23;;;;;;;18.38;9.48;;;;;;;;;;5063478;28;20503;-85
2021/09/10 10:29:48;;;;;;;12.80;7.30;;;;;;;;;;5059945;28;20033;-84
2021/09/10 10:32:13;;;;;;;12.18;5.72;;;;;;;;;;5058552;28;20021;-84
2021/09/10 10:35:14;;;;;;;21.15;7.28;;;;;;;;;;5057031;28;20028;-88
2021/09/10 10:37:45;;;;;;;12.43;7.50;;;;;;;;;;5057631;28;20395;-84
2021/09/10 10:40:30;;;;;;;11.55;6.25;;;;;;;;;;5058653;28;20025;-85
2021/09/10 10:42:59;;;;;;;14.65;7.05;;;;;;;;;;5056130;28;20032;-85
2021/09/10 10:45:59;;;;;;;17.00;6.47;;;;;;;;;;5056198;28;20090;-84
2021/09/10 10:48:31;;;;;;;15.82;6.93;;;;;;;;;;5047661;28;20083;-85
2021/09/10 10:51:24;;;;;;;12.93;6.97;;;;;;;;;;5057504;28;20020;-84
2021/09/10 10:53:52;;;;;;;10.88;6.43;;;;;;;;;;5056720;28;20025;-88
2021/09/10 10:56:26;;;;;;;8.13;6.70;;;;;;;;;;5058998;28;20021;-85
2021/09/10 10:59:14;;;;;;;15.60;7.38;;;;;;;;;;5055016;28;20095;-84
2021/09/10 11:02:15;;;;;;;22.35;7.43;;;;;;;;;;5056098;28;20048;-84
2021/09/10 11:04:46;;;;;;;21.40;9.43;;;;;;;;;;5051781;28;20025;-85
2021/09/10 11:07:13;;;;;;;10.97;8.07;;;;;;;;;;5055930;28;20021;-86
2021/09/10 11:09:38;;;;;;;14.90;8.25;;;;;;;;;;5055767;28;20396;-86
2021/09/10 11:12:04;;;;;;;10.93;7.15;;;;;;;;;;5056341;28;20033;-85
2021/09/10 11:14:33;;;;;;;16.15;7.85;;;;;;;;;;5056798;28;20105;-85
2021/09/10 11:17:12;;;;;;;11.75;6.40;;;;;;;;;;5056570;28;20025;-85
2021/09/10 11:19:43;;;;;;;11.88;6.25;;;;;;;;;;5058561;28;20177;-86
2021/09/10 11:22:09;;;;;;;11.23;6.13;;;;;;;;;;5064715;28;20037;-86
2021/09/10 11:24:34;;;;;;;13.48;6.38;;;;;;;;;;5073540;28;20031;-84
2021/09/10 11:26:59;;;;;;;13.07;7.90;;;;;;;;;;5064876;28;20051;-85
2021/09/10 11:29:35;;;;;;;11.40;8.73;;;;;;;;;;5057267;28;20071;-83
2021/09/10 11:32:19;;;;;;;32.40;20.42;;;;;;;;;;5056110;28;20033;-82
2021/09/10 11:34:44;;;;;;;20.02;11.30;;;;;;;;;;5056930;28;20082;-84
2021/09/10 11:37:09;;;;;;;14.27;11.05;;;;;;;;;;5056514;28;20050;-86
2021/09/10 11:39:43;;;;;;;13.60;11.48;;;;;;;;;;5056272;28;20033;-85
2021/09/10 11:42:08;;;;;;;15.00;11.60;;;;;;;;;;5054739;28;20396;-83
2021/09/10 11:44:34;;;;;;;17.13;10.95;;;;;;;;;;5056357;28;20028;-84
2021/09/10 11:46:59;;;;;;;15.40;11.63;;;;;;;;;;5056990;28;20057;-82
2021/09/10 11:49:25;;;;;;;17.55;12.82;;;;;;;;;;5055681;28;20025;-84
2021/09/10 11:51:51;;;;;;;20.58;10.73;;;;;;;;;;5056268;28;20025;-84
2021/09/10 11:54:20;;;;;;;21.35;11.20;;;;;;;;;;5055467;28;20025;-83
2021/09/10 11:56:48;;;;;;;18.40;10.30;;;;;;;;;;5056868;28;20028;-84
2021/09/10 11:59:18;;;;;;;17.63;11.57;;;;;;;;;;5056566;28;20056;-83
2021/09/10 12:01:44;;;;;;;14.25;11.93;;;;;;;;;;5061187;28;20028;-83
2021/09/10 12:04:14;;;;;;;12.65;10.90;;;;;;;;;;5058193;28;20079;-82
2021/09/10 12:06:53;;;;;;;17.48;11.48;;;;;;;;;;5050433;28;20453;-84
2021/09/10 12:09:24;;;;;;;12.70;11.30;;;;;;;;;;5058627;28;20523;-83
2021/09/10 12:12:07;;;;;;;15.85;11.77;;;;;;;;;;5055977;28;20479;-84
2021/09/10 12:14:33;;;;;;;14.02;11.80;;;;;;;;;;5054855;28;20043;-84
2021/09/10 12:17:18;;;;;;;16.25;11.95;;;;;;;;;;5056695;28;20103;-85
2021/09/10 12:20:01;;;;;;;20.55;11.85;;;;;;;;;;5059532;28;20049;-84
2021/09/10 12:22:36;;;;;;;18.60;12.00;;;;;;;;;;5067235;28;20028;-83
2021/09/10 12:25:37;;;;;;;18.30;13.10;;;;;;;;;;5056487;28;20025;-86
2021/09/10 12:28:13;;;;;;;12.23;10.80;;;;;;;;;;5054886;28;20020;-86
2021/09/10 12:30:54;;;;;;;10.90;9.40;;;;;;;;;;5055243;28;20052;-87
2021/09/10 12:33:23;;;;;;;15.37;9.73;;;;;;;;;;5054634;28;20135;-85
2021/09/10 12:35:52;;;;;;;14.82;10.57;;;;;;;;;;5054389;28;20274;-84
2021/09/10 12:38:19;;;;;;;14.35;8.70;;;;;;;;;;5053741;28;20021;-84
2021/09/10 12:40:47;;;;;;;14.23;7.45;;;;;;;;;;5054742;28;20032;-85
2021/09/10 12:43:14;;;;;;;6.45;5.00;;;;;;;;;;5055612;28;20029;-85
2021/09/10 12:45:41;;;;;;;8.98;4.15;;;;;;;;;;5053889;28;20517;-84
2021/09/10 12:48:07;;;;;;;10.38;3.83;;;;;;;;;;5054321;28;20086;-85
2021/09/10 12:50:33;;;;;;;7.50;3.65;;;;;;;;;;5055916;28;20029;-84
2021/09/10 12:52:59;;;;;;;9.32;4.03;;;;;;;;;;5054143;28;20025;-85
2021/09/10 12:55:24;;;;;;;10.07;4.07;;;;;;;;;;5055332;28;20100;-86
2021/09/10 12:57:50;;;;;;;7.80;4.32;;;;;;;;;;5053667;28;20024;-84
2021/09/10 13:00:16;;;;;;;9.05;4.00;;;;;;;;;;5057110;28;20428;-85
2021/09/10 13:02:41;;;;;;;10.02;4.30;;;;;;;;;;5058276;28;20098;-85
2021/09/10 13:05:08;;;;;;;7.85;3.65;;;;;;;;;;5058155;28;20021;-85
2021/09/10 13:07:34;;;;;;;7.30;3.20;;;;;;;;;;5058984;28;20071;-86
2021/09/10 13:10:00;;;;;;;7.05;4.25;;;;;;;;;;5060006;28;20078;-85
2021/09/10 13:12:25;;;;;;;7.97;3.85;;;;;;;;;;5058525;28;20025;-85
2021/09/10 13:14:51;;;;;;;9.40;3.90;;;;;;;;;;5059611;28;20025;-84
2021/09/10 13:17:24;;;;;;;8.05;4.07;;;;;;;;;;5060909;28;20017;-85
2021/09/10 13:19:51;;;;;;;10.13;5.88;;;;;;;;;;5058082;28;20025;-84
2021/09/10 13:22:16;;;;;;;11.25;4.10;;;;;;;;;;5061376;28;20029;-85
2021/09/10 13:24:43;;;;;;;9.35;4.57;;;;;;;;;;5060802;28;20395;-86
2021/09/10 13:27:13;;;;;;;18.80;4.50;;;;;;;;;;5050711;28;20104;-85
2021/09/10 13:29:38;;;;;;;7.57;4.40;;;;;;;;;;5058701;28;20427;-85
2021/09/10 13:32:04;;;;;;;8.65;3.88;;;;;;;;;;5058025;28;20079;-85
2021/09/10 13:34:29;;;;;;;6.78;4.03;;;;;;;;;;5057440;28;20027;-85
2021/09/10 13:36:55;;;;;;;9.35;4.68;;;;;;;;;;5049012;28;20086;-85
2021/09/10 13:39:20;;;;;;;9.63;5.00;;;;;;;;;;5060311;28;20060;-85
2021/09/10 13:41:46;;;;;;;13.23;5.95;;;;;;;;;;5065400;28;20392;-85
2021/09/10 13:44:11;;;;;;;11.05;5.03;;;;;;;;;;5060939;28;20031;-86
2021/09/10 13:46:37;;;;;;;15.05;6.25;;;;;;;;;;5057627;28;20015;-85
2021/09/10 13:49:03;;;;;;;12.80;7.53;;;;;;;;;;5057275;28;20098;-84
2021/09/10 13:51:29;;;;;;;15.95;7.88;;;;;;;;;;5059467;28;20088;-84
2021/09/10 13:53:54;;;;;;;10.30;6.95;;;;;;;;;;5060223;28;20479;-84
2021/09/10 13:56:21;;;;;;;10.77;6.65;;;;;;;;;;5064297;28;20044;-85
2021/09/10 13:58:46;;;;;;;9.63;7.35;;;;;;;;;;5065273;28;20041;-85
2021/09/10 14:01:12;;;;;;;19.42;7.93;;;;;;;;;;5058102;28;20551;-84
2021/09/10 14:03:37;;;;;;;17.95;7.47;;;;;;;;;;5054890;28;20116;-85
2021/09/10 14:06:04;;;;;;;10.63;7.38;;;;;;;;;;5059664;28;20056;-83
2021/09/10 14:08:29;;;;;;;10.10;5.53;;;;;;;;;;5059271;28;20082;-83
2021/09/10 14:10:54;;;;;;;11.88;5.35;;;;;;;;;;5058331;28;20032;-84
2021/09/10 14:13:20;;;;;;;7.07;4.97;;;;;;;;;;5057408;28;20040;-84
2021/09/10 14:15:45;;;;;;;11.05;5.95;;;;;;;;;;5058106;28;20098;-84
2021/09/10 14:18:11;;;;;;;9.15;5.75;;;;;;;;;;5060020;28;20025;-84
2021/09/10 14:20:36;;;;;;;9.35;4.22;;;;;;;;;;5060314;28;20024;-84
2021/09/10 14:23:01;;;;;;;12.32;4.55;;;;;;;;;;5057673;28;20036;-83
2021/09/10 14:25:27;;;;;;;14.13;4.90;;;;;;;;;;5048889;28;20043;-85
2021/09/10 14:36:45;;;;;;;9.65;6.45;;;;;;;;;;5680922;22;20048;-85
2021/09/10 14:39:12;;;;;;;9.63;6.95;;;;;;;;;;5097156;28;20028;-84
2021/09/10 14:41:37;;;;;;;12.98;6.28;;;;;;;;;;5099477;28;20028;-85
2021/09/10 14:44:03;;;;;;;11.38;6.60;;;;;;;;;;5082542;28;20058;-83
2021/09/10 14:46:28;;;;;;;11.18;7.45;;;;;;;;;;5082211;28;20028;-84
2021/09/10 14:48:55;;;;;;;11.07;6.38;;;;;;;;;;5084630;28;20029;-85
2021/09/10 14:51:20;;;;;;;12.70;6.03;;;;;;;;;;5077159;28;20027;-85
2021/09/10 14:53:46;;;;;;;9.57;5.82;;;;;;;;;;5091361;28;20487;-85
2021/09/10 14:56:12;;;;;;;16.35;7.10;;;;;;;;;;5228838;22;20029;-85
2021/09/10 14:59:20;;;;;;;13.18;7.47;;;;;;;;;;5057803;28;20033;-85
2021/09/10 15:01:48;;;;;;;15.73;7.97;;;;;;;;;;5050049;28;20108;-85
2021/09/10 15:10:58;;;;;;;14.25;8.63;;;;;;;;;;5042752;28;20036;-84
2021/09/10 15:13:24;;;;;;;14.73;9.13;;;;;;;;;;5038141;28;20037;-84
2021/09/10 15:15:50;;;;;;;11.70;9.07;;;;;;;;;;5038894;28;20057;-84
2021/09/10 15:18:16;;;;;;;12.32;10.25;;;;;;;;;;5038208;28;20022;-82
2021/09/10 15:20:41;;;;;;;15.35;11.70;;;;;;;;;;5043266;28;20108;-82
2021/09/10 15:23:07;;;;;;;14.82;12.00;;;;;;;;;;5036760;28;20030;-81
2021/09/10 15:25:33;;;;;;;17.15;11.60;;;;;;;;;;5036113;28;20033;-82
2021/09/10 15:27:58;;;;;;;13.07;10.48;;;;;;;;;;5035568;28;20014;-82
2021/09/10 15:30:26;;;;;;;8.45;6.40;;;;;;;;;;5034948;28;20136;-83
2021/09/10 15:32:53;;;;;;;4.40;3.58;;;;;;;;;;5035805;28;20025;-83
2021/09/10 15:35:18;;;;;;;4.38;2.10;;;;;;;;;;5035329;28;20040;-82
2021/09/10 15:37:44;;;;;;;4.65;1.58;;;;;;;;;;5036907;28;20021;-82
2021/09/10 15:40:10;;;;;;;2.63;1.40;;;;;;;;;;5036745;28;20068;-83